Portada
METAR-TAF:

METAR-TAF

Aeroports :

Culiacán, Mèxic

latitud: 24-49N, longitud: 107-24W, altitud: 39 m

Observació

L'informe es va fer fa 57 minuts, a les 03:41 UTC
Vent calma
Temperatura 28°C
Humitat 74%
Pressió 1008 hPa
Visibilitat: 16.1 km
Cel clar

METAR: MMCL 010341Z 00000KT 10SM SKC 28/23 A2977 RMK HZY

Hora: 22:38 (04:38 UTC)

Pronòstic

L'informe es va fer fa 11 hores i 23 minuts, a les 17:15 UTC
Pronòstic vàlid del 30 a les 18 UTC al 01 a les 18 UTC
Vent 10 kt del Sud-Oest
Visibilitat: 10 km
Núvols disperses a una alçada de 3000 ft
A partir de les 01 a les 0300 UTC
Vent kt del Nord
Visibilitat: 10 km
Cel clar
A partir de les 01 a les 1500 UTC
Vent 10 kt del Sud/Sud-Oest
Visibilitat: 10 km
Núvols disperses a una alçada de 2000 ft

TAF: MMCL 301715Z 3018/0118 23010KT P6SM SCT030 FM010300 00000KT P6SM SKC FM011500 20010KT P6SM SCT020

Observacions i pronòstics meteorològics de més de 4000 aeroports (METAR i TAF).

Les estacions disponibles són els punts grocs i vermells al mapa.

Posi el ratolí al punt desitjat per veure el nom de l'estació.

Feu clic per veure les observacions i els pronòstics meteorològics.

Per canviar el mapa: feu clic els botons verds amb una creu de color negre per apropar; al botó verd amb un guió per allunyar la imatge; o en les fletxes verdes per a mapes adjacents.


METAR-TAF: